sensor_id;sensor_type;location;lat;lon;timestamp;pressure;altitude;pressure_sealevel;temperature;humidity
4410;BME280;2218;51.408;7.208;2023-03-26T00:01:12;98899.69;;;19.30;42.67
4410;BME280;2218;51.408;7.208;2023-03-26T00:03:41;98895.38;;;19.29;42.59
4410;BME280;2218;51.408;7.208;2023-03-26T00:06:13;98897.16;;;19.28;42.85
4410;BME280;2218;51.408;7.208;2023-03-26T00:08:44;98903.28;;;19.29;42.67
4410;BME280;2218;51.408;7.208;2023-03-26T00:11:14;98902.44;;;19.28;42.79
4410;BME280;2218;51.408;7.208;2023-03-26T00:13:42;98905.22;;;19.27;42.65
4410;BME280;2218;51.408;7.208;2023-03-26T00:16:10;98899.09;;;19.26;42.71
4410;BME280;2218;51.408;7.208;2023-03-26T00:18:39;98900.06;;;19.25;42.91
4410;BME280;2218;51.408;7.208;2023-03-26T00:21:09;98899.09;;;19.26;42.72
4410;BME280;2218;51.408;7.208;2023-03-26T00:23:38;98895.75;;;19.24;42.62
4410;BME280;2218;51.408;7.208;2023-03-26T00:26:07;98903.66;;;19.24;42.77
4410;BME280;2218;51.408;7.208;2023-03-26T00:28:36;98896.72;;;19.23;42.60
4410;BME280;2218;51.408;7.208;2023-03-26T00:31:08;98897.53;;;19.24;42.76
4410;BME280;2218;51.408;7.208;2023-03-26T00:33:36;98894.91;;;19.24;42.66
4410;BME280;2218;51.408;7.208;2023-03-26T00:36:09;98885.34;;;19.23;42.66
4410;BME280;2218;51.408;7.208;2023-03-26T00:38:37;98887.16;;;19.22;42.72
4410;BME280;2218;51.408;7.208;2023-03-26T00:41:07;98876.59;;;19.22;42.96
4410;BME280;2218;51.408;7.208;2023-03-26T00:43:44;98882.84;;;19.21;42.85
4410;BME280;2218;51.408;7.208;2023-03-26T00:46:12;98873.28;;;19.20;42.66
4410;BME280;2218;51.408;7.208;2023-03-26T00:48:39;98873.28;;;19.20;42.77
4410;BME280;2218;51.408;7.208;2023-03-26T00:51:08;98867.19;;;19.20;42.82
4410;BME280;2218;51.408;7.208;2023-03-26T00:53:36;98872.44;;;19.20;42.92
4410;BME280;2218;51.408;7.208;2023-03-26T00:56:05;98872.44;;;19.20;42.84
4410;BME280;2218;51.408;7.208;2023-03-26T00:58:33;98871.59;;;19.19;43.00
4410;BME280;2218;51.408;7.208;2023-03-26T01:01:05;98864.66;;;19.18;42.88
4410;BME280;2218;51.408;7.208;2023-03-26T01:03:36;98865.47;;;19.19;42.90
4410;BME280;2218;51.408;7.208;2023-03-26T01:06:06;98861.03;;;19.19;42.73
4410;BME280;2218;51.408;7.208;2023-03-26T01:08:38;98854.13;;;19.18;42.88
4410;BME280;2218;51.408;7.208;2023-03-26T01:11:11;98852.44;;;19.17;42.88
4410;BME280;2218;51.408;7.208;2023-03-26T01:13:48;98847.19;;;19.17;42.77
4410;BME280;2218;51.408;7.208;2023-03-26T01:16:23;98853.41;;;19.16;42.95
4410;BME280;2218;51.408;7.208;2023-03-26T01:18:53;98840.25;;;19.16;42.87
4410;BME280;2218;51.408;7.208;2023-03-26T01:21:26;98846.34;;;19.17;42.81
4410;BME280;2218;51.408;7.208;2023-03-26T01:23:59;98847.31;;;19.16;42.79
4410;BME280;2218;51.408;7.208;2023-03-26T01:26:53;98843.00;;;19.15;42.72
4410;BME280;2218;51.408;7.208;2023-03-26T01:29:32;98844.78;;;19.14;42.88
4410;BME280;2218;51.408;7.208;2023-03-26T01:32:52;98843.13;;;19.13;43.03
4410;BME280;2218;51.408;7.208;2023-03-26T01:35:37;98840.47;;;19.13;42.95
4410;BME280;2218;51.408;7.208;2023-03-26T01:38:21;98841.47;;;19.12;42.80
4410;BME280;2218;51.408;7.208;2023-03-26T01:40:58;98825.66;;;19.12;43.07
4410;BME280;2218;51.408;7.208;2023-03-26T01:43:33;98834.38;;;19.13;43.14
4410;BME280;2218;51.408;7.208;2023-03-26T01:46:06;98823.03;;;19.12;42.98
4410;BME280;2218;51.408;7.208;2023-03-26T01:48:37;98826.63;;;19.11;42.81
4410;BME280;2218;51.408;7.208;2023-03-26T01:51:07;98819.69;;;19.10;42.72
4410;BME280;2218;51.408;7.208;2023-03-26T01:53:39;98818.84;;;19.09;42.81
4410;BME280;2218;51.408;7.208;2023-03-26T01:56:17;98825.91;;;19.09;43.06
4410;BME280;2218;51.408;7.208;2023-03-26T01:59:00;98818.00;;;19.09;43.15
4410;BME280;2218;51.408;7.208;2023-03-26T02:01:42;98807.47;;;19.09;43.08
4410;BME280;2218;51.408;7.208;2023-03-26T02:04:21;98814.44;;;19.10;43.16
4410;BME280;2218;51.408;7.208;2023-03-26T02:06:58;98803.16;;;19.08;43.27
4410;BME280;2218;51.408;7.208;2023-03-26T02:09:36;98800.53;;;19.08;43.32
4410;BME280;2218;51.408;7.208;2023-03-26T02:12:09;98794.44;;;19.07;42.98
4410;BME280;2218;51.408;7.208;2023-03-26T02:14:36;98791.94;;;19.06;43.10
4410;BME280;2218;51.408;7.208;2023-03-26T02:17:03;98777.81;;;19.07;42.99
4410;BME280;2218;51.408;7.208;2023-03-26T02:19:30;98776.97;;;19.06;43.12
4410;BME280;2218;51.408;7.208;2023-03-26T02:21:57;98782.38;;;19.05;43.10
4410;BME280;2218;51.408;7.208;2023-03-26T02:24:26;98781.50;;;19.04;42.88
4410;BME280;2218;51.408;7.208;2023-03-26T02:26:56;98785.00;;;19.05;43.26
4410;BME280;2218;51.408;7.208;2023-03-26T02:29:28;98777.09;;;19.05;42.95
4410;BME280;2218;51.408;7.208;2023-03-26T02:31:55;98781.50;;;19.04;43.27
4410;BME280;2218;51.408;7.208;2023-03-26T02:34:22;98765.84;;;19.03;42.89
4410;BME280;2218;51.408;7.208;2023-03-26T02:36:51;98760.56;;;19.03;43.09
4410;BME280;2218;51.408;7.208;2023-03-26T02:39:19;98764.03;;;19.03;42.98
4410;BME280;2218;51.408;7.208;2023-03-26T02:42:00;98771.09;;;19.03;42.99
4410;BME280;2218;51.408;7.208;2023-03-26T02:44:29;98764.03;;;19.03;43.05
4410;BME280;2218;51.408;7.208;2023-03-26T02:46:56;98755.31;;;19.03;43.06
4410;BME280;2218;51.408;7.208;2023-03-26T02:49:49;98756.28;;;19.02;42.97
4410;BME280;2218;51.408;7.208;2023-03-26T02:52:43;98745.75;;;19.02;42.91
4410;BME280;2218;51.408;7.208;2023-03-26T02:55:13;98747.56;;;19.01;43.31
4410;BME280;2218;51.408;7.208;2023-03-26T02:57:42;98744.78;;;19.03;42.98
4410;BME280;2218;51.408;7.208;2023-03-26T03:00:17;98746.44;;;19.04;42.96
4410;BME280;2218;51.408;7.208;2023-03-26T03:02:46;98747.16;;;19.06;43.17
4410;BME280;2218;51.408;7.208;2023-03-26T03:05:30;98735.66;;;19.07;43.06
4410;BME280;2218;51.408;7.208;2023-03-26T03:08:16;98739.84;;;19.09;43.06
4410;BME280;2218;51.408;7.208;2023-03-26T03:11:02;98738.75;;;19.12;42.75
4410;BME280;2218;51.408;7.208;2023-03-26T03:13:37;98726.41;;;19.13;43.02
4410;BME280;2218;51.408;7.208;2023-03-26T03:16:07;98720.16;;;19.14;42.80
4410;BME280;2218;51.408;7.208;2023-03-26T03:18:34;98715.75;;;19.14;42.94
4410;BME280;2218;51.408;7.208;2023-03-26T03:21:03;98713.81;;;19.16;42.79
4410;BME280;2218;51.408;7.208;2023-03-26T03:23:30;98708.56;;;19.16;42.77
4410;BME280;2218;51.408;7.208;2023-03-26T03:26:13;98707.59;;;19.17;42.69
4410;BME280;2218;51.408;7.208;2023-03-26T03:28:42;98705.78;;;19.18;42.72
4410;BME280;2218;51.408;7.208;2023-03-26T03:31:15;98706.63;;;19.18;42.82
4410;BME280;2218;51.408;7.208;2023-03-26T03:33:43;98699.56;;;19.19;43.06
4410;BME280;2218;51.408;7.208;2023-03-26T03:36:13;98698.72;;;19.18;42.83
4410;BME280;2218;51.408;7.208;2023-03-26T03:38:44;98688.19;;;19.18;43.07
4410;BME280;2218;51.408;7.208;2023-03-26T03:41:15;98683.75;;;19.19;42.71
4410;BME280;2218;51.408;7.208;2023-03-26T03:43:44;98687.22;;;19.19;42.98
4410;BME280;2218;51.408;7.208;2023-03-26T03:46:20;98692.47;;;19.19;42.95
4410;BME280;2218;51.408;7.208;2023-03-26T03:48:48;98688.91;;;19.20;42.98
4410;BME280;2218;51.408;7.208;2023-03-26T03:51:20;98688.06;;;19.20;42.94
4410;BME280;2218;51.408;7.208;2023-03-26T03:53:50;98684.47;;;19.21;42.94
4410;BME280;2218;51.408;7.208;2023-03-26T03:56:28;98695.00;;;19.21;42.99
4410;BME280;2218;51.408;7.208;2023-03-26T03:59:14;98685.31;;;19.21;42.84
4410;BME280;2218;51.408;7.208;2023-03-26T04:01:43;98686.13;;;19.22;42.69
4410;BME280;2218;51.408;7.208;2023-03-26T04:04:20;98681.69;;;19.22;43.01
4410;BME280;2218;51.408;7.208;2023-03-26T04:07:00;98673.78;;;19.22;43.05
4410;BME280;2218;51.408;7.208;2023-03-26T04:09:34;98675.59;;;19.22;42.91
4410;BME280;2218;51.408;7.208;2023-03-26T04:12:09;98676.44;;;19.22;42.96
4410;BME280;2218;51.408;7.208;2023-03-26T04:14:44;98678.09;;;19.23;42.74
4410;BME280;2218;51.408;7.208;2023-03-26T04:17:17;98667.56;;;19.23;42.84
4410;BME280;2218;51.408;7.208;2023-03-26T04:19:46;98662.28;;;19.23;42.64
4410;BME280;2218;51.408;7.208;2023-03-26T04:22:16;98655.22;;;19.24;42.97
4410;BME280;2218;51.408;7.208;2023-03-26T04:24:52;98652.59;;;19.24;42.80
4410;BME280;2218;51.408;7.208;2023-03-26T04:27:31;98642.88;;;19.24;42.90
4410;BME280;2218;51.408;7.208;2023-03-26T04:30:19;98637.59;;;19.24;43.00
4410;BME280;2218;51.408;7.208;2023-03-26T04:33:03;98639.31;;;19.25;42.72
4410;BME280;2218;51.408;7.208;2023-03-26T04:35:34;98636.66;;;19.25;42.77
4410;BME280;2218;51.408;7.208;2023-03-26T04:38:03;98628.75;;;19.25;42.78
4410;BME280;2218;51.408;7.208;2023-03-26T04:40:35;98625.16;;;19.26;42.89
4410;BME280;2218;51.408;7.208;2023-03-26T04:43:12;98619.06;;;19.26;42.71
4410;BME280;2218;51.408;7.208;2023-03-26T04:46:09;98614.63;;;19.26;42.88
4410;BME280;2218;51.408;7.208;2023-03-26T04:48:50;98619.91;;;19.26;42.70
4410;BME280;2218;51.408;7.208;2023-03-26T04:51:19;98614.63;;;19.26;43.03
4410;BME280;2218;51.408;7.208;2023-03-26T04:53:53;98609.34;;;19.26;42.72
4410;BME280;2218;51.408;7.208;2023-03-26T04:56:49;98602.28;;;19.27;42.60
4410;BME280;2218;51.408;7.208;2023-03-26T04:59:41;98600.47;;;19.27;42.61
4410;BME280;2218;51.408;7.208;2023-03-26T05:02:12;98598.81;;;19.26;42.98
4410;BME280;2218;51.408;7.208;2023-03-26T05:04:51;98595.22;;;19.27;42.91
4410;BME280;2218;51.408;7.208;2023-03-26T05:07:20;98584.69;;;19.27;42.77
4410;BME280;2218;51.408;7.208;2023-03-26T05:09:52;98589.94;;;19.27;42.84
4410;BME280;2218;51.408;7.208;2023-03-26T05:12:48;98592.59;;;19.27;42.77
4410;BME280;2218;51.408;7.208;2023-03-26T05:15:28;98586.34;;;19.28;42.76
4410;BME280;2218;51.408;7.208;2023-03-26T05:17:58;98580.25;;;19.28;42.70
4410;BME280;2218;51.408;7.208;2023-03-26T05:20:35;98574.13;;;19.27;42.81
4410;BME280;2218;51.408;7.208;2023-03-26T05:23:05;98569.72;;;19.28;42.56
4410;BME280;2218;51.408;7.208;2023-03-26T05:25:35;98576.63;;;19.29;42.67
4410;BME280;2218;51.408;7.208;2023-03-26T05:28:05;98577.50;;;19.29;42.77
4410;BME280;2218;51.408;7.208;2023-03-26T05:30:44;98572.22;;;19.29;42.60
4410;BME280;2218;51.408;7.208;2023-03-26T05:33:12;98565.25;;;19.28;42.69
4410;BME280;2218;51.408;7.208;2023-03-26T05:35:57;98564.31;;;19.29;42.54
4410;BME280;2218;51.408;7.208;2023-03-26T05:38:24;98554.72;;;19.28;42.84
4410;BME280;2218;51.408;7.208;2023-03-26T05:40:57;98552.81;;;19.30;42.65
4410;BME280;2218;51.408;7.208;2023-03-26T05:43:25;98551.16;;;19.29;42.62
4410;BME280;2218;51.408;7.208;2023-03-26T05:46:13;98545.88;;;19.29;42.72
4410;BME280;2218;51.408;7.208;2023-03-26T05:48:40;98546.72;;;19.30;42.83
4410;BME280;2218;51.408;7.208;2023-03-26T05:51:08;98539.66;;;19.30;42.47
4410;BME280;2218;51.408;7.208;2023-03-26T05:53:41;98537.97;;;19.29;42.76
4410;BME280;2218;51.408;7.208;2023-03-26T05:56:26;98529.94;;;19.31;42.85
4410;BME280;2218;51.408;7.208;2023-03-26T05:59:15;98518.56;;;19.30;42.58
4410;BME280;2218;51.408;7.208;2023-03-26T06:02:21;98522.03;;;19.31;42.67
4410;BME280;2218;51.408;7.208;2023-03-26T06:05:07;98519.41;;;19.31;42.54
4410;BME280;2218;51.408;7.208;2023-03-26T06:07:59;98517.59;;;19.31;42.60
4410;BME280;2218;51.408;7.208;2023-03-26T06:10:36;98501.78;;;19.31;42.53
4410;BME280;2218;51.408;7.208;2023-03-26T06:13:04;98506.22;;;19.31;42.58
4410;BME280;2218;51.408;7.208;2023-03-26T06:15:34;98500.97;;;19.31;42.60
4410;BME280;2218;51.408;7.208;2023-03-26T06:18:07;98496.53;;;19.31;42.69
4410;BME280;2218;51.408;7.208;2023-03-26T06:20:46;98491.25;;;19.31;42.43
4410;BME280;2218;51.408;7.208;2023-03-26T06:23:23;98490.44;;;19.31;42.63
4410;BME280;2218;51.408;7.208;2023-03-26T06:26:15;98497.34;;;19.32;42.66
4410;BME280;2218;51.408;7.208;2023-03-26T06:28:48;98503.44;;;19.32;42.69
4410;BME280;2218;51.408;7.208;2023-03-26T06:31:54;98490.28;;;19.32;42.28
4410;BME280;2218;51.408;7.208;2023-03-26T06:34:24;98494.56;;;19.33;42.54
4410;BME280;2218;51.408;7.208;2023-03-26T06:36:51;98500.81;;;19.32;42.72
4410;BME280;2218;51.408;7.208;2023-03-26T06:39:21;98488.47;;;19.33;42.68
4410;BME280;2218;51.408;7.208;2023-03-26T06:42:08;98489.31;;;19.33;42.55
4410;BME280;2218;51.408;7.208;2023-03-26T06:44:47;98486.66;;;19.33;42.59
4410;BME280;2218;51.408;7.208;2023-03-26T06:47:41;98493.75;;;19.33;42.49
4410;BME280;2218;51.408;7.208;2023-03-26T06:50:27;98488.47;;;19.33;42.39
4410;BME280;2218;51.408;7.208;2023-03-26T06:53:10;98489.31;;;19.33;42.65
4410;BME280;2218;51.408;7.208;2023-03-26T06:55:44;98484.03;;;19.33;42.63
4410;BME280;2218;51.408;7.208;2023-03-26T06:58:24;98493.75;;;19.33;42.59
4410;BME280;2218;51.408;7.208;2023-03-26T07:01:10;98488.47;;;19.33;42.59
4410;BME280;2218;51.408;7.208;2023-03-26T07:03:55;98480.72;;;19.31;42.49
4410;BME280;2218;51.408;7.208;2023-03-26T07:06:42;98482.38;;;19.32;42.36
4410;BME280;2218;51.408;7.208;2023-03-26T07:09:27;98478.75;;;19.33;42.42
4410;BME280;2218;51.408;7.208;2023-03-26T07:12:22;98473.50;;;19.33;42.44
4410;BME280;2218;51.408;7.208;2023-03-26T07:15:18;98470.03;;;19.33;42.36
4410;BME280;2218;51.408;7.208;2023-03-26T07:17:51;98464.75;;;19.33;42.59
4410;BME280;2218;51.408;7.208;2023-03-26T07:20:29;98466.56;;;19.32;42.56
4410;BME280;2218;51.408;7.208;2023-03-26T07:22:58;98464.75;;;19.33;42.51
4410;BME280;2218;51.408;7.208;2023-03-26T07:26:17;98456.03;;;19.32;42.46
4410;BME280;2218;51.408;7.208;2023-03-26T07:29:11;98462.97;;;19.33;42.47
4410;BME280;2218;51.408;7.208;2023-03-26T07:32:25;98447.16;;;19.33;42.41
4410;BME280;2218;51.408;7.208;2023-03-26T07:35:17;98455.06;;;19.33;42.36
4410;BME280;2218;51.408;7.208;2023-03-26T07:38:35;98442.88;;;19.32;42.28
4410;BME280;2218;51.408;7.208;2023-03-26T07:41:33;98441.88;;;19.33;42.29
4410;BME280;2218;51.408;7.208;2023-03-26T07:44:50;98431.34;;;19.33;42.55
4410;BME280;2218;51.408;7.208;2023-03-26T07:47:33;98433.97;;;19.33;42.39
4410;BME280;2218;51.408;7.208;2023-03-26T07:50:16;98435.78;;;19.33;42.57
4410;BME280;2218;51.408;7.208;2023-03-26T07:52:57;98427.78;;;19.34;42.63
4410;BME280;2218;51.408;7.208;2023-03-26T07:55:52;98425.13;;;19.34;42.44
4410;BME280;2218;51.408;7.208;2023-03-26T07:58:49;98418.19;;;19.33;42.35
4410;BME280;2218;51.408;7.208;2023-03-26T08:01:53;98415.53;;;19.33;42.58
4410;BME280;2218;51.408;7.208;2023-03-26T08:04:55;98414.59;;;19.34;42.54
4410;BME280;2218;51.408;7.208;2023-03-26T08:07:56;98408.63;;;19.32;42.38
4410;BME280;2218;51.408;7.208;2023-03-26T08:10:38;98410.28;;;19.33;42.42
4410;BME280;2218;51.408;7.208;2023-03-26T08:13:24;98409.34;;;19.34;42.64
4410;BME280;2218;51.408;7.208;2023-03-26T08:16:01;98405.00;;;19.33;42.51
4410;BME280;2218;51.408;7.208;2023-03-26T08:18:44;98397.94;;;19.34;42.46
4410;BME280;2218;51.408;7.208;2023-03-26T08:21:19;98400.56;;;19.34;42.32
4410;BME280;2218;51.408;7.208;2023-03-26T08:23:59;98401.44;;;19.34;42.59
4410;BME280;2218;51.408;7.208;2023-03-26T08:26:36;98393.53;;;19.34;42.64
4410;BME280;2218;51.408;7.208;2023-03-26T08:29:19;98398.78;;;19.34;42.38
4410;BME280;2218;51.408;7.208;2023-03-26T08:31:50;98390.91;;;19.34;42.50
4410;BME280;2218;51.408;7.208;2023-03-26T08:34:18;98397.94;;;19.34;42.66
4410;BME280;2218;51.408;7.208;2023-03-26T08:36:45;98397.94;;;19.34;42.42
4410;BME280;2218;51.408;7.208;2023-03-26T08:39:12;98395.19;;;19.35;42.50
4410;BME280;2218;51.408;7.208;2023-03-26T08:42:08;98388.25;;;19.34;42.35
4410;BME280;2218;51.408;7.208;2023-03-26T08:45:29;98396.16;;;19.34;42.41
4410;BME280;2218;51.408;7.208;2023-03-26T08:48:51;98392.56;;;19.35;42.58
4410;BME280;2218;51.408;7.208;2023-03-26T08:55:15;98387.28;;;19.35;42.55
4410;BME280;2218;51.408;7.208;2023-03-26T09:05:39;98381.19;;;19.35;42.62
4410;BME280;2218;51.408;7.208;2023-03-26T09:08:58;98387.28;;;19.35;42.62
4410;BME280;2218;51.408;7.208;2023-03-26T09:12:25;98387.28;;;19.35;42.17
4410;BME280;2218;51.408;7.208;2023-03-26T09:15:47;98384.66;;;19.35;42.59
4410;BME280;2218;51.408;7.208;2023-03-26T09:19:10;98379.38;;;19.35;42.48
4410;BME280;2218;51.408;7.208;2023-03-26T09:25:53;98381.19;;;19.35;42.59
4410;BME280;2218;51.408;7.208;2023-03-26T09:29:11;98379.38;;;19.35;42.53
4410;BME280;2218;51.408;7.208;2023-03-26T09:32:13;98381.19;;;19.35;42.42
4410;BME280;2218;51.408;7.208;2023-03-26T09:35:13;98382.00;;;19.35;42.49
4410;BME280;2218;51.408;7.208;2023-03-26T09:37:56;98378.56;;;19.35;42.47
4410;BME280;2218;51.408;7.208;2023-03-26T09:40:35;98373.28;;;19.35;42.52
4410;BME280;2218;51.408;7.208;2023-03-26T09:43:33;98366.22;;;19.35;42.59
4410;BME280;2218;51.408;7.208;2023-03-26T09:46:21;98371.47;;;19.35;42.65
4410;BME280;2218;51.408;7.208;2023-03-26T09:49:18;98367.88;;;19.36;42.79
4410;BME280;2218;51.408;7.208;2023-03-26T09:52:15;98360.94;;;19.35;42.62
4410;BME280;2218;51.408;7.208;2023-03-26T09:55:09;98366.22;;;19.35;42.87
4410;BME280;2218;51.408;7.208;2023-03-26T09:58:07;98361.78;;;19.36;42.70
4410;BME280;2218;51.408;7.208;2023-03-26T10:00:47;98364.25;;;19.37;42.79
4410;BME280;2218;51.408;7.208;2023-03-26T10:03:41;98362.59;;;19.36;42.47
4410;BME280;2218;51.408;7.208;2023-03-26T10:06:33;98362.59;;;19.36;42.85
4410;BME280;2218;51.408;7.208;2023-03-26T10:09:20;98362.59;;;19.36;42.85
4410;BME280;2218;51.408;7.208;2023-03-26T10:12:08;98359.00;;;19.37;42.69
4410;BME280;2218;51.408;7.208;2023-03-26T10:14:46;98358.00;;;19.38;42.53
4410;BME280;2218;51.408;7.208;2023-03-26T10:17:37;98354.53;;;19.38;42.61
4410;BME280;2218;51.408;7.208;2023-03-26T10:20:32;98348.44;;;19.37;42.80
4410;BME280;2218;51.408;7.208;2023-03-26T10:23:36;98354.53;;;19.38;42.52
4410;BME280;2218;51.408;7.208;2023-03-26T10:26:35;98350.94;;;19.39;42.81
4410;BME280;2218;51.408;7.208;2023-03-26T10:29:28;98351.78;;;19.40;42.88
4410;BME280;2218;51.408;7.208;2023-03-26T10:32:16;98349.28;;;19.38;42.92
4410;BME280;2218;51.408;7.208;2023-03-26T10:35:05;98352.75;;;19.38;42.77
4410;BME280;2218;51.408;7.208;2023-03-26T10:37:53;98348.44;;;19.37;42.70
4410;BME280;2218;51.408;7.208;2023-03-26T10:40:31;98344.84;;;19.38;42.78
4410;BME280;2218;51.408;7.208;2023-03-26T10:43:55;98341.53;;;19.36;42.75
4410;BME280;2218;51.408;7.208;2023-03-26T10:46:45;98345.66;;;19.39;43.02
4410;BME280;2218;51.408;7.208;2023-03-26T10:49:53;98341.53;;;19.36;42.74
4410;BME280;2218;51.408;7.208;2023-03-26T10:52:36;98354.69;;;19.36;42.83
4410;BME280;2218;51.408;7.208;2023-03-26T10:55:13;98345.13;;;19.35;43.05
4410;BME280;2218;51.408;7.208;2023-03-26T10:57:47;98345.13;;;19.35;42.99
4410;BME280;2218;51.408;7.208;2023-03-26T11:00:20;98345.13;;;19.35;42.99
4410;BME280;2218;51.408;7.208;2023-03-26T11:03:25;98345.13;;;19.35;42.71
4410;BME280;2218;51.408;7.208;2023-03-26T11:06:07;98344.31;;;19.35;42.96
4410;BME280;2218;51.408;7.208;2023-03-26T11:08:43;98337.34;;;19.34;42.76
4410;BME280;2218;51.408;7.208;2023-03-26T11:11:23;98339.88;;;19.35;42.55
4410;BME280;2218;51.408;7.208;2023-03-26T11:14:03;98338.22;;;19.34;42.87
4410;BME280;2218;51.408;7.208;2023-03-26T11:16:48;98342.50;;;19.35;43.16
4410;BME280;2218;51.408;7.208;2023-03-26T11:19:26;98346.13;;;19.34;42.89
4410;BME280;2218;51.408;7.208;2023-03-26T11:22:10;98337.22;;;19.35;42.81
4410;BME280;2218;51.408;7.208;2023-03-26T11:25:03;98326.81;;;19.34;42.96
4410;BME280;2218;51.408;7.208;2023-03-26T11:27:49;98338.22;;;19.34;42.83
4410;BME280;2218;51.408;7.208;2023-03-26T11:30:30;98334.59;;;19.35;42.82
4410;BME280;2218;51.408;7.208;2023-03-26T11:33:04;98331.13;;;19.35;43.13
4410;BME280;2218;51.408;7.208;2023-03-26T11:35:37;98329.34;;;19.35;42.96
4410;BME280;2218;51.408;7.208;2023-03-26T11:38:15;98334.59;;;19.35;43.02
4410;BME280;2218;51.408;7.208;2023-03-26T11:40:48;98330.16;;;19.36;42.86
4410;BME280;2218;51.408;7.208;2023-03-26T11:43:36;98322.25;;;19.36;42.97
4410;BME280;2218;51.408;7.208;2023-03-26T11:46:08;98325.72;;;19.36;42.97
4410;BME280;2218;51.408;7.208;2023-03-26T11:48:41;98320.44;;;19.36;43.05
4410;BME280;2218;51.408;7.208;2023-03-26T11:51:17;98320.44;;;19.36;42.95
4410;BME280;2218;51.408;7.208;2023-03-26T11:53:47;98325.72;;;19.36;43.17
4410;BME280;2218;51.408;7.208;2023-03-26T11:56:28;98320.44;;;19.36;43.04
4410;BME280;2218;51.408;7.208;2023-03-26T11:59:03;98330.84;;;19.38;43.05
4410;BME280;2218;51.408;7.208;2023-03-26T12:01:47;98315.19;;;19.36;42.96
4410;BME280;2218;51.408;7.208;2023-03-26T12:04:18;98322.09;;;19.37;42.78
4410;BME280;2218;51.408;7.208;2023-03-26T12:06:56;98321.13;;;19.38;42.95
4410;BME280;2218;51.408;7.208;2023-03-26T12:09:25;98320.19;;;19.40;43.18
4410;BME280;2218;51.408;7.208;2023-03-26T12:11:59;98317.53;;;19.40;42.94
4410;BME280;2218;51.408;7.208;2023-03-26T12:14:31;98307.97;;;19.38;43.04
4410;BME280;2218;51.408;7.208;2023-03-26T12:17:04;98313.22;;;19.38;43.10
4410;BME280;2218;51.408;7.208;2023-03-26T12:19:38;98314.06;;;19.39;43.01
4410;BME280;2218;51.408;7.208;2023-03-26T12:22:29;98311.31;;;19.41;42.95
4410;BME280;2218;51.408;7.208;2023-03-26T12:25:14;98308.66;;;19.41;43.11
4410;BME280;2218;51.408;7.208;2023-03-26T12:27:43;98305.22;;;19.40;43.04
4410;BME280;2218;51.408;7.208;2023-03-26T12:30:19;98306.03;;;19.41;42.97
4410;BME280;2218;51.408;7.208;2023-03-26T12:32:49;98306.03;;;19.41;43.12
4410;BME280;2218;51.408;7.208;2023-03-26T12:35:23;98311.31;;;19.41;43.01
4410;BME280;2218;51.408;7.208;2023-03-26T12:37:52;98306.84;;;19.41;43.08
4410;BME280;2218;51.408;7.208;2023-03-26T12:40:31;98303.25;;;19.42;42.83
4410;BME280;2218;51.408;7.208;2023-03-26T12:43:00;98300.63;;;19.42;43.06
4410;BME280;2218;51.408;7.208;2023-03-26T12:45:31;98304.91;;;19.43;42.84
4410;BME280;2218;51.408;7.208;2023-03-26T12:48:03;98303.09;;;19.44;42.99
4410;BME280;2218;51.408;7.208;2023-03-26T12:50:54;98303.94;;;19.44;42.91
4410;BME280;2218;51.408;7.208;2023-03-26T12:53:41;98301.28;;;19.44;42.96
4410;BME280;2218;51.408;7.208;2023-03-26T12:56:20;98297.81;;;19.44;42.86
4410;BME280;2218;51.408;7.208;2023-03-26T12:59:20;98296.88;;;19.45;43.02
4410;BME280;2218;51.408;7.208;2023-03-26T13:02:05;98294.38;;;19.43;43.06
4410;BME280;2218;51.408;7.208;2023-03-26T13:05:08;98295.19;;;19.44;42.99
4410;BME280;2218;51.408;7.208;2023-03-26T13:08:03;98298.53;;;19.46;42.88
4410;BME280;2218;51.408;7.208;2023-03-26T13:10:46;98288.97;;;19.45;42.80
4410;BME280;2218;51.408;7.208;2023-03-26T13:16:31;98286.19;;;19.46;43.09
4410;BME280;2218;51.408;7.208;2023-03-26T13:19:07;98284.38;;;19.47;43.04
4410;BME280;2218;51.408;7.208;2023-03-26T13:21:48;98293.94;;;19.48;43.04
4410;BME280;2218;51.408;7.208;2023-03-26T13:24:32;98293.13;;;19.47;42.99
4410;BME280;2218;51.408;7.208;2023-03-26T13:27:15;98288.66;;;19.48;43.14
4410;BME280;2218;51.408;7.208;2023-03-26T13:29:59;98284.38;;;19.47;43.15
4410;BME280;2218;51.408;7.208;2023-03-26T13:32:46;98292.28;;;19.47;43.07
4410;BME280;2218;51.408;7.208;2023-03-26T13:35:26;98290.63;;;19.46;42.89
4410;BME280;2218;51.408;7.208;2023-03-26T13:38:03;98295.75;;;19.47;43.11
4410;BME280;2218;51.408;7.208;2023-03-26T13:40:48;98292.28;;;19.47;42.88
4410;BME280;2218;51.408;7.208;2023-03-26T13:43:34;98290.63;;;19.46;43.03
4410;BME280;2218;51.408;7.208;2023-03-26T13:46:15;98281.91;;;19.45;43.15
4410;BME280;2218;51.408;7.208;2023-03-26T13:48:52;98283.72;;;19.45;43.08
4410;BME280;2218;51.408;7.208;2023-03-26T13:51:27;98287.16;;;19.45;43.01
4410;BME280;2218;51.408;7.208;2023-03-26T13:54:04;98291.63;;;19.45;42.89
4410;BME280;2218;51.408;7.208;2023-03-26T13:56:39;98289.09;;;19.43;42.99
4410;BME280;2218;51.408;7.208;2023-03-26T13:59:16;98295.19;;;19.44;43.01
4410;BME280;2218;51.408;7.208;2023-03-26T14:01:52;98299.63;;;19.43;43.14
4410;BME280;2218;51.408;7.208;2023-03-26T14:04:24;98297.00;;;19.43;43.08
4410;BME280;2218;51.408;7.208;2023-03-26T14:07:02;98298.81;;;19.43;43.19
4410;BME280;2218;51.408;7.208;2023-03-26T14:09:39;98305.06;;;19.42;42.95
4410;BME280;2218;51.408;7.208;2023-03-26T14:12:32;98302.41;;;19.42;43.08
4410;BME280;2218;51.408;7.208;2023-03-26T14:15:05;98304.06;;;19.43;43.16
4410;BME280;2218;51.408;7.208;2023-03-26T14:17:43;98304.06;;;19.43;43.23
4410;BME280;2218;51.408;7.208;2023-03-26T14:20:53;98317.25;;;19.43;43.17
4410;BME280;2218;51.408;7.208;2023-03-26T14:24:26;98307.69;;;19.42;43.16
4410;BME280;2218;51.408;7.208;2023-03-26T14:27:10;98317.41;;;19.41;43.19
4410;BME280;2218;51.408;7.208;2023-03-26T14:30:16;98321.69;;;19.42;42.95
4410;BME280;2218;51.408;7.208;2023-03-26T14:33:06;98314.63;;;19.43;42.94
4410;BME280;2218;51.408;7.208;2023-03-26T14:35:45;98323.50;;;19.42;42.95
4410;BME280;2218;51.408;7.208;2023-03-26T14:38:45;98325.16;;;19.43;42.83
4410;BME280;2218;51.408;7.208;2023-03-26T14:41:23;98319.88;;;19.43;43.19
4410;BME280;2218;51.408;7.208;2023-03-26T14:44:37;98325.97;;;19.43;43.21
4410;BME280;2218;51.408;7.208;2023-03-26T14:47:15;98328.75;;;19.42;43.07
4410;BME280;2218;51.408;7.208;2023-03-26T14:50:22;98332.38;;;19.41;43.03
4410;BME280;2218;51.408;7.208;2023-03-26T14:53:02;98341.09;;;19.41;43.03
4410;BME280;2218;51.408;7.208;2023-03-26T15:02:53;98351.78;;;19.40;43.09